Time;durP1;ratioP1;P1;durP2;ratioP2;P2;SDS_P1;SDS_P2;PMS_P1;PMS_P2;Temp;Humidity;BMP_temperature;BMP_pressure;BME280_temperature;BME280_humidity;BME280_pressure;Samples;Min_cycle;Max_cycle;Signal;HPM_P1;HPM_P2
2021/09/28 00:00:26;;;;;;;13.23;3.08;;;;;;;15.49;65.79;102046.75;10503087;28;20119;-76
2021/09/28 00:05:26;;;;;;;8.60;3.08;;;;;;;15.51;65.44;102039.22;10503450;28;20028;-76
2021/09/28 00:10:27;;;;;;;8.65;3.05;;;;;;;15.46;65.08;102051.78;10502726;28;20476;-76
2021/09/28 00:15:27;;;;;;;6.03;3.13;;;;;;;15.42;65.65;102051.34;10501648;28;20033;-76
2021/09/28 00:20:29;;;;;;;14.35;2.45;;;;;;;15.38;65.30;102052.78;10502587;28;20033;-76
2021/09/28 00:25:30;;;;;;;11.05;3.75;;;;;;;15.33;65.91;102060.72;10502638;28;20135;-76
2021/09/28 00:30:30;;;;;;;11.07;3.28;;;;;;;15.39;65.37;102059.94;10502080;28;20047;-76
2021/09/28 00:35:30;;;;;;;12.32;4.00;;;;;;;15.36;64.89;102065.78;10483666;28;20036;-76
2021/09/28 00:40:31;;;;;;;11.27;3.30;;;;;;;15.21;65.24;102071.34;10466799;28;20143;-76
2021/09/28 00:45:31;;;;;;;7.50;3.53;;;;;;;15.18;65.72;102084.56;10501264;28;20530;-76
2021/09/28 00:50:32;;;;;;;14.75;4.40;;;;;;;14.96;66.09;102049.13;10482026;28;20488;-76
2021/09/28 00:55:32;;;;;;;13.27;4.68;;;;;;;14.42;65.91;101960.63;10482769;28;20142;-76
2021/09/28 01:00:33;;;;;;;14.20;4.90;;;;;;;15.17;66.05;102085.59;10500350;28;20035;-76
2021/09/28 01:05:33;;;;;;;11.20;3.28;;;;;;;15.14;66.48;102064.19;10500391;28;20024;-76
2021/09/28 01:10:35;;;;;;;8.15;3.22;;;;;;;14.26;66.81;101951.88;10482509;28;20032;-76
2021/09/28 01:15:35;;;;;;;7.35;3.30;;;;;;;13.42;66.88;101824.59;10498593;28;20064;-76
2021/09/28 01:20:36;;;;;;;11.85;4.10;;;;;;;14.65;66.88;102011.38;10498519;28;20056;-76
2021/09/28 01:25:38;;;;;;;16.42;2.97;;;;;;;14.35;66.65;101964.31;10481180;28;20036;-76
2021/09/28 01:30:38;;;;;;;12.02;4.00;;;;;;;14.97;66.60;102080.84;10499184;28;20044;-76
2021/09/28 01:35:40;;;;;;;11.20;3.17;;;;;;;15.10;66.78;102086.41;10480922;28;20040;-76
2021/09/28 01:40:40;;;;;;;11.15;4.10;;;;;;;14.81;67.03;102032.06;10497198;28;20096;-76
2021/09/28 01:45:41;;;;;;;15.93;4.70;;;;;;;15.16;66.29;102081.22;10481219;28;20056;-76
2021/09/28 01:50:42;;;;;;;8.18;4.10;;;;;;;14.89;66.45;102045.53;10498085;28;20081;-76
2021/09/28 01:55:42;;;;;;;9.50;3.00;;;;;;;14.03;66.37;101920.25;10498804;28;20465;-76
2021/09/28 02:00:43;;;;;;;17.95;3.95;;;;;;;14.51;66.13;102012.28;10498357;28;20094;-76
2021/09/28 02:05:43;;;;;;;6.38;3.33;;;;;;;14.80;66.65;102093.06;10498425;28;20032;-77
2021/09/28 02:10:44;;;;;;;5.53;2.88;;;;;;;14.75;67.01;102093.66;10480610;28;20029;-76
2021/09/28 02:15:44;;;;;;;7.32;2.80;;;;;;;14.81;67.09;102087.44;10498279;28;20040;-77
2021/09/28 02:20:45;;;;;;;8.15;4.53;;;;;;;14.18;67.39;101982.81;10479394;28;20162;-76
2021/09/28 02:25:45;;;;;;;11.82;4.07;;;;;;;13.70;67.11;101915.31;10498079;28;20043;-76
2021/09/28 02:30:46;;;;;;;16.98;4.00;;;;;;;14.73;66.88;102075.81;10497655;28;20472;-76
2021/09/28 02:35:47;;;;;;;16.13;4.28;;;;;;;14.81;66.59;102108.41;10480978;28;20456;-75
2021/09/28 02:40:47;;;;;;;11.23;3.83;;;;;;;14.76;66.67;102099.97;10471911;28;20075;-76
2021/09/28 02:45:50;;;;;;;10.95;3.85;;;;;;;14.70;66.88;102087.09;10506370;28;20039;-76
2021/09/28 02:50:50;;;;;;;12.88;3.63;;;;;;;14.76;66.39;102106.25;10487484;28;20035;-76
2021/09/28 02:55:51;;;;;;;8.48;3.58;;;;;;;14.60;66.61;102096.44;10505571;28;20041;-76
2021/09/28 03:00:51;;;;;;;10.25;4.78;;;;;;;14.64;66.23;102111.41;10505296;28;20024;-76
2021/09/28 03:05:52;;;;;;;11.35;4.63;;;;;;;14.60;66.36;102112.81;10505301;28;20037;-76
2021/09/28 03:10:52;;;;;;;11.07;4.32;;;;;;;14.63;66.56;102134.22;10470538;28;20365;-76
2021/09/28 03:15:53;;;;;;;9.27;4.82;;;;;;;14.60;65.89;102126.44;10504629;28;20033;-78
2021/09/28 03:20:53;;;;;;;5.50;3.80;;;;;;;14.48;66.44;102124.38;10485977;28;20463;-76
2021/09/28 03:25:54;;;;;;;16.27;5.10;;;;;;;14.52;66.26;102115.69;10504889;28;20044;-76
2021/09/28 03:30:54;;;;;;;14.60;4.00;;;;;;;14.45;66.19;102122.88;10504084;28;20090;-76
2021/09/28 03:35:55;;;;;;;15.77;4.72;;;;;;;14.24;67.03;102109.25;10503918;28;20039;-75
2021/09/28 03:40:55;;;;;;;12.80;5.22;;;;;;;14.42;66.68;102131.44;10503582;28;20404;-76
2021/09/28 03:45:56;;;;;;;12.18;4.38;;;;;;;14.37;66.54;102136.66;10503581;28;20036;-76
2021/09/28 03:50:56;;;;;;;18.42;4.93;;;;;;;14.22;66.83;102098.53;10502592;28;20502;-76
2021/09/28 03:55:56;;;;;;;12.10;3.60;;;;;;;13.92;66.74;102013.34;10502928;28;20044;-76
2021/09/28 04:00:57;;;;;;;11.45;3.25;;;;;;;14.58;66.24;102139.44;10484741;28;20503;-76
2021/09/28 04:05:57;;;;;;;3.63;3.28;;;;;;;14.48;66.45;102152.47;10502832;28;20037;-76
2021/09/28 04:10:58;;;;;;;13.82;4.68;;;;;;;14.49;66.82;102148.75;10485131;28;20056;-76
2021/09/28 04:16:00;;;;;;;8.70;3.75;;;;;;;14.29;67.94;102117.69;10502452;28;20063;-76
2021/09/28 04:21:00;;;;;;;11.95;4.70;;;;;;;14.43;68.20;102116.81;10501202;28;20059;-76
2021/09/28 04:26:02;;;;;;;17.55;3.33;;;;;;;14.74;68.38;102118.38;10502049;28;20075;-76
2021/09/28 04:31:03;;;;;;;11.77;3.85;;;;;;;15.06;68.89;102139.69;10483781;28;20033;-74
2021/09/28 04:36:03;;;;;;;15.88;5.30;;;;;;;15.32;68.32;102141.78;10483345;28;20036;-75
2021/09/28 04:41:04;;;;;;;14.00;4.18;;;;;;;14.93;66.98;102044.06;10465792;28;20082;-75
2021/09/28 04:46:04;;;;;;;13.05;4.68;;;;;;;13.88;66.29;101900.41;10501096;28;20157;-75
2021/09/28 04:51:04;;;;;;;16.27;4.60;;;;;;;15.06;66.63;102164.22;10500399;28;20090;-75
2021/09/28 04:56:05;;;;;;;13.80;4.55;;;;;;;14.92;66.56;102181.50;10501086;28;20127;-75
2021/09/28 05:01:05;;;;;;;12.18;3.05;;;;;;;14.83;66.88;102156.25;10484157;28;20094;-76
2021/09/28 05:06:06;;;;;;;12.80;3.15;;;;;;;14.69;67.46;102165.34;10458944;28;20075;-76
2021/09/28 05:11:12;;;;;;;18.35;4.45;;;;;;;14.68;67.54;102169.13;10482963;28;20411;-77
2021/09/28 05:16:13;;;;;;;8.57;3.55;;;;;;;13.56;67.92;101992.44;10500939;28;20032;-77
2021/09/28 05:21:13;;;;;;;9.90;3.10;;;;;;;14.54;67.62;102162.66;10498751;28;20098;-77
2021/09/28 05:26:14;;;;;;;11.27;4.65;;;;;;;13.36;67.42;101988.59;10501261;28;20082;-77
2021/09/28 05:31:15;;;;;;;11.68;4.72;;;;;;;14.54;67.24;102180.91;10500035;28;20039;-77
2021/09/28 05:36:15;;;;;;;9.52;3.58;;;;;;;14.26;67.55;102148.03;10466276;28;20505;-77
2021/09/28 05:41:15;;;;;;;8.38;3.38;;;;;;;14.51;67.94;102195.75;10499641;28;20045;-76
2021/09/28 05:46:16;;;;;;;5.85;3.00;;;;;;;14.59;66.33;102187.47;10499731;28;20032;-76
2021/09/28 05:51:18;;;;;;;15.82;4.95;;;;;;;14.53;66.52;102187.38;10499417;28;20054;-77
2021/09/28 05:56:18;;;;;;;10.20;4.65;;;;;;;14.53;66.95;102185.50;10499496;28;20036;-77
2021/09/28 06:01:18;;;;;;;14.18;3.80;;;;;;;14.54;66.96;102225.34;10481192;28;20028;-76
2021/09/28 06:06:23;;;;;;;10.77;2.95;;;;;;;14.25;66.59;102139.03;10497296;28;20020;-77
2021/09/28 06:11:23;;;;;;;13.30;4.97;;;;;;;14.60;66.50;102167.34;10480739;28;20031;-77
2021/09/28 06:16:24;;;;;;;9.85;3.88;;;;;;;13.94;66.01;102033.94;10480571;28;20392;-77
2021/09/28 06:21:24;;;;;;;16.88;4.75;;;;;;;14.05;66.26;102048.06;10497010;28;20031;-77
2021/09/28 06:26:24;;;;;;;14.43;3.88;;;;;;;15.47;65.75;102174.41;10480119;28;20071;-77
2021/09/28 06:31:25;;;;;;;13.93;4.75;;;;;;;15.97;65.26;102153.31;10497758;28;20037;-77
2021/09/28 06:36:25;;;;;;;8.85;3.90;;;;;;;16.72;63.80;102079.53;10498264;28;20044;-77
2021/09/28 06:41:27;;;;;;;16.30;3.72;;;;;;;18.12;62.50;102196.09;10497288;28;20480;-77
2021/09/28 06:46:28;;;;;;;14.27;4.35;;;;;;;18.41;61.05;102116.19;10497635;28;20484;-77
2021/09/28 06:51:28;;;;;;;11.90;3.75;;;;;;;18.90;60.91;102202.47;10479183;28;20040;-77
2021/09/28 06:56:28;;;;;;;28.73;4.93;;;;;;;18.91;60.23;102195.91;10498023;28;20460;-78
2021/09/28 07:01:29;;;;;;;5.03;3.97;;;;;;;19.22;59.56;102192.31;10479769;28;20029;-77
2021/09/28 07:06:29;;;;;;;7.50;4.18;;;;;;;19.79;58.86;102168.34;10497603;28;20200;-77
2021/09/28 07:11:30;;;;;;;10.55;3.17;;;;;;;20.76;60.26;102187.63;10480566;28;20029;-77
2021/09/28 07:16:30;;;;;;;7.13;3.58;;;;;;;20.02;58.56;102035.66;10479063;28;20477;-77
2021/09/28 07:21:31;;;;;;;15.25;3.60;;;;;;;21.55;56.54;102196.56;10497616;28;20074;-78
2021/09/28 07:26:31;;;;;;;5.68;3.05;;;;;;;22.03;55.66;102195.44;10504202;28;20049;-77
2021/09/28 07:31:31;;;;;;;7.65;2.30;;;;;;;22.49;54.55;102160.56;10504603;28;20045;-77
2021/09/28 07:36:32;;;;;;;10.50;2.95;;;;;;;22.54;54.58;102197.63;10486687;28;20127;-78
2021/09/28 07:41:32;;;;;;;5.25;3.38;;;;;;;22.16;54.62;102210.09;10503969;28;20484;-77
2021/09/28 07:46:33;;;;;;;4.20;2.63;;;;;;;22.59;54.48;102209.59;10504056;28;20036;-77
2021/09/28 07:51:33;;;;;;;6.60;2.80;;;;;;;22.58;53.35;102204.31;10504433;28;20463;-77
2021/09/28 07:56:33;;;;;;;6.20;2.67;;;;;;;22.98;52.95;102209.81;10505173;28;20028;-77
2021/09/28 08:01:35;;;;;;;12.13;2.97;;;;;;;23.04;51.27;102180.31;10486114;28;20040;-77
2021/09/28 08:06:35;;;;;;;4.53;2.80;;;;;;;22.90;55.59;102155.75;10503928;28;20082;-78
2021/09/28 08:11:35;;;;;;;7.38;3.47;;;;;;;22.64;52.94;102139.81;10503595;28;20109;-76
2021/09/28 08:16:36;;;;;;;7.65;3.25;;;;;;;23.32;52.04;102196.00;10501576;28;20068;-77
2021/09/28 08:21:36;;;;;;;4.45;2.03;;;;;;;23.76;49.94;102212.75;10501935;28;20135;-77
2021/09/28 08:31:56;;;;;;;5.57;2.83;;;;;;;23.19;48.96;102139.97;10501510;28;20040;-77
2021/09/28 08:36:56;;;;;;;7.13;2.47;;;;;;;22.73;51.01;102154.91;10483479;28;20127;-77
2021/09/28 08:41:57;;;;;;;8.23;3.08;;;;;;;22.97;53.85;102192.38;10501473;28;20048;-78
2021/09/28 08:46:57;;;;;;;9.82;2.85;;;;;;;23.73;52.92;102213.25;10483867;28;20040;-78
2021/09/28 08:52:00;;;;;;;5.88;2.45;;;;;;;23.47;51.21;102223.06;10500907;28;20063;-78
2021/09/28 08:57:01;;;;;;;5.43;2.33;;;;;;;24.45;50.70;102212.31;10483269;28;20085;-77
2021/09/28 09:02:06;;;;;;;3.42;1.83;;;;;;;24.92;52.73;102215.31;10482712;28;20465;-78
2021/09/28 09:07:23;;;;;;;9.00;3.30;;;;;;;23.04;48.81;101965.69;10500966;28;20161;-78
2021/09/28 09:12:36;;;;;;;6.72;2.97;;;;;;;25.46;46.46;102212.50;10500982;28;20051;-77
2021/09/28 09:17:36;;;;;;;10.32;3.03;;;;;;;25.49;45.33;102200.88;10483089;28;20036;-78
2021/09/28 09:22:37;;;;;;;4.43;2.97;;;;;;;25.40;43.21;102190.50;10482433;28;20123;-78
2021/09/28 09:27:37;;;;;;;7.00;2.33;;;;;;;25.59;51.95;102164.03;10500635;28;20075;-78
2021/09/28 09:32:55;;;;;;;3.72;2.63;;;;;;;24.52;53.19;102155.63;10482117;28;20469;-77
2021/09/28 09:38:07;;;;;;;6.68;3.13;;;;;;;25.03;48.82;102194.91;10482424;28;20411;-78
2021/09/28 09:43:08;;;;;;;9.15;3.15;;;;;;;25.62;50.18;102185.69;10500241;28;20033;-78
2021/09/28 09:48:25;;;;;;;6.43;3.05;;;;;;;25.66;45.64;102178.50;10480334;28;20491;-77
2021/09/28 09:53:26;;;;;;;7.03;2.25;;;;;;;24.73;47.01;102178.84;10498997;28;20036;-78
2021/09/28 09:58:26;;;;;;;8.57;3.65;;;;;;;24.42;45.55;102161.06;10499853;28;20032;-78
2021/09/28 10:03:27;;;;;;;9.52;4.28;;;;;;;24.35;46.22;102175.06;10498657;28;20546;-79
2021/09/28 10:08:27;;;;;;;6.47;2.92;;;;;;;24.70;44.42;102093.47;10498527;28;20033;-78
2021/09/28 10:13:46;;;;;;;13.55;4.38;;;;;;;25.89;48.63;102173.66;10480074;28;20041;-78
2021/09/28 10:18:47;;;;;;;11.80;3.53;;;;;;;26.50;44.92;102146.13;10498120;28;20077;-79
2021/09/28 10:24:22;;;;;;;3.55;2.67;;;;;;;25.63;48.91;102162.38;10496774;28;20041;-80
2021/09/28 10:29:44;;;;;;;10.32;3.28;;;;;;;24.25;48.86;102078.06;10491562;28;20060;-78
2021/09/28 10:35:06;;;;;;;15.50;4.47;;;;;;;26.42;47.57;102155.00;10480189;28;20518;-78
2021/09/28 10:40:08;;;;;;;6.32;3.05;;;;;;;27.04;44.43;102131.72;10498257;28;20499;-79
2021/09/28 10:45:18;;;;;;;10.13;3.03;;;;;;;26.42;42.11;102116.09;10497293;28;20392;-79
2021/09/28 10:50:23;;;;;;;14.88;3.33;;;;;;;25.34;41.90;102028.00;10497228;28;20071;-79
2021/09/28 10:55:29;;;;;;;11.23;3.20;;;;;;;25.15;44.28;102124.63;10497643;28;20032;-79
2021/09/28 11:00:52;;;;;;;9.80;2.78;;;;;;;25.03;43.60;102122.00;10505017;28;20037;-78
2021/09/28 11:05:55;;;;;;;11.20;3.53;;;;;;;25.37;42.75;102117.03;10496395;28;20544;-78
2021/09/28 11:10:58;;;;;;;2.08;1.88;;;;;;;24.65;43.22;101990.94;10488547;28;20125;-79
2021/09/28 11:15:59;;;;;;;2.85;2.55;;;;;;;25.35;46.25;102104.53;10505590;28;20445;-78
2021/09/28 11:21:13;;;;;;;5.63;3.08;;;;;;;25.10;43.81;102083.81;10504735;28;20025;-78
2021/09/28 11:26:13;;;;;;;3.88;2.13;;;;;;;26.52;43.43;102101.44;10502596;28;20036;-78
2021/09/28 11:31:13;;;;;;;6.05;2.78;;;;;;;26.77;39.75;102083.91;10503464;28;20083;-79
2021/09/28 11:36:17;;;;;;;3.67;2.00;;;;;;;25.21;39.75;102066.19;10503605;28;20063;-79
2021/09/28 11:41:20;;;;;;;6.22;2.58;;;;;;;25.90;39.01;102078.19;10460891;28;20040;-78
2021/09/28 11:46:22;;;;;;;7.53;2.65;;;;;;;25.44;39.90;102083.50;10485482;28;20040;-78
2021/09/28 11:51:29;;;;;;;10.23;2.30;;;;;;;24.63;39.51;101839.97;10502911;28;20102;-79
2021/09/28 11:56:38;;;;;;;5.88;2.65;;;;;;;24.00;36.65;101944.97;10503421;28;20468;-79
2021/09/28 12:01:38;;;;;;;5.07;1.98;;;;;;;22.12;41.73;101822.66;10484428;28;20036;-78
2021/09/28 12:06:59;;;;;;;8.32;2.13;;;;;;;23.94;41.39;102029.84;10484366;28;20033;-79
2021/09/28 12:12:03;;;;;;;6.22;2.42;;;;;;;24.63;38.62;101940.50;10501625;28;20036;-79
2021/09/28 12:17:11;;;;;;;10.75;3.05;;;;;;;25.18;37.72;101957.78;10500632;28;20058;-79
2021/09/28 12:22:11;;;;;;;2.05;1.85;;;;;;;25.50;37.04;102052.75;10501384;28;20036;-79
2021/09/28 12:27:12;;;;;;;1.50;1.38;;;;;;;26.09;42.50;102040.47;10483424;28;20040;-79
2021/09/28 12:32:30;;;;;;;3.17;1.83;;;;;;;24.36;39.49;101896.28;10501367;28;20037;-79
2021/09/28 12:37:47;;;;;;;8.18;2.15;;;;;;;25.09;40.54;102036.97;10501692;28;20374;-78
2021/09/28 12:43:03;;;;;;;2.92;2.00;;;;;;;25.15;40.38;102039.53;10499901;28;20044;-78
2021/09/28 12:48:04;;;;;;;2.43;1.53;;;;;;;24.73;39.66;102028.38;10499901;28;20365;-78
2021/09/28 12:53:08;;;;;;;14.27;3.25;;;;;;;23.73;41.34;102012.19;10500468;28;20036;-79
2021/09/28 12:58:10;;;;;;;9.07;2.28;;;;;;;24.20;44.48;102010.75;10482224;28;20036;-79
2021/09/28 13:03:18;;;;;;;1.60;1.48;;;;;;;23.51;44.38;101969.84;10500052;28;20078;-78
2021/09/28 13:08:21;;;;;;;12.77;2.08;;;;;;;23.74;43.13;102011.09;10481916;28;20025;-79
2021/09/28 13:13:22;;;;;;;3.90;2.20;;;;;;;24.71;39.57;101989.88;10498860;28;20039;-79
2021/09/28 13:18:22;;;;;;;7.95;2.47;;;;;;;24.45;40.20;102015.72;10500161;28;20039;-78
2021/09/28 13:23:22;;;;;;;7.18;1.95;;;;;;;23.87;40.54;101965.59;10498851;28;20040;-79
2021/09/28 13:28:23;;;;;;;4.72;2.35;;;;;;;23.67;41.47;101952.34;10481972;28;20048;-78
2021/09/28 13:33:23;;;;;;;3.88;1.35;;;;;;;23.97;41.22;101987.81;10499112;28;20040;-77
2021/09/28 13:38:23;;;;;;;9.40;1.90;;;;;;;23.28;42.78;101988.38;10498756;28;20044;-78
2021/09/28 13:43:24;;;;;;;3.47;1.77;;;;;;;21.87;41.60;101981.09;10480122;28;20475;-78
2021/09/28 13:48:24;;;;;;;6.55;1.70;;;;;;;21.80;44.33;101977.66;10497518;28;20071;-79
2021/09/28 13:53:25;;;;;;;5.38;1.65;;;;;;;21.38;42.85;101975.16;10498356;28;20500;-78
2021/09/28 13:58:25;;;;;;;3.03;1.40;;;;;;;21.74;42.90;101953.81;10497938;28;20044;-79
2021/09/28 14:03:26;;;;;;;8.27;1.70;;;;;;;21.89;43.05;101962.38;10498414;28;20123;-78
2021/09/28 14:08:26;;;;;;;6.05;1.48;;;;;;;22.02;43.05;101962.06;10498273;28;20499;-78
2021/09/28 14:13:27;;;;;;;7.25;1.60;;;;;;;22.43;43.84;101976.59;10480686;28;20032;-79
2021/09/28 14:18:27;;;;;;;3.92;1.80;;;;;;;22.38;43.06;101940.63;10498359;28;20037;-78
2021/09/28 14:23:27;;;;;;;2.47;1.50;;;;;;;22.40;42.31;101946.75;10498939;28;20443;-78
2021/09/28 14:28:29;;;;;;;13.10;2.28;;;;;;;22.58;43.15;101909.75;10499220;28;20119;-78
2021/09/28 14:33:29;;;;;;;3.78;1.40;;;;;;;22.26;42.85;101935.19;10502858;28;20032;-78
2021/09/28 14:38:30;;;;;;;1.98;1.65;;;;;;;22.31;41.47;101777.16;10489161;28;20064;-79
2021/09/28 14:43:31;;;;;;;4.55;1.25;;;;;;;24.11;39.98;101917.13;10506932;28;20036;-79
2021/09/28 14:48:31;;;;;;;11.98;1.58;;;;;;;22.60;40.46;101802.66;10488979;28;20040;-78
2021/09/28 14:53:32;;;;;;;6.43;2.63;;;;;;;22.07;40.37;101779.25;10504286;28;20127;-80
2021/09/28 14:58:32;;;;;;;3.67;1.90;;;;;;;21.12;40.93;101633.06;10487377;28;20068;-79
2021/09/28 15:03:33;;;;;;;7.20;2.35;;;;;;;20.84;42.37;101718.47;10503638;28;20051;-79
2021/09/28 15:08:34;;;;;;;2.50;1.83;;;;;;;22.36;41.88;101915.19;10503363;28;20032;-79
2021/09/28 15:13:34;;;;;;;5.63;1.88;;;;;;;21.58;42.17;101894.81;10503758;28;20060;-78
2021/09/28 15:18:34;;;;;;;1.80;1.63;;;;;;;21.50;42.37;101886.91;10503469;28;20112;-78
2021/09/28 15:23:35;;;;;;;2.03;1.77;;;;;;;21.16;42.50;101842.72;10504500;28;20345;-78
2021/09/28 15:28:35;;;;;;;4.53;2.67;;;;;;;21.01;42.75;101883.72;10486358;28;20075;-78
2021/09/28 15:33:37;;;;;;;1.60;1.50;;;;;;;20.25;42.79;101808.53;10486241;28;20420;-79
2021/09/28 15:38:48;;;;;;;2.20;1.88;;;;;;;20.34;44.08;101856.59;10504105;28;20088;-79
2021/09/28 15:43:49;;;;;;;5.82;1.50;;;;;;;20.32;44.37;101884.34;10469241;28;20095;-80
2021/09/28 15:48:51;;;;;;;4.95;2.35;;;;;;;20.06;43.98;101736.31;10504880;28;20046;-79
2021/09/28 15:53:51;;;;;;;4.78;1.60;;;;;;;20.61;43.98;101859.72;10503074;28;20101;-79
2021/09/28 15:58:51;;;;;;;3.40;2.22;;;;;;;19.59;44.95;101693.19;10504355;28;20097;-79
2021/09/28 16:03:52;;;;;;;4.45;1.65;;;;;;;20.61;44.35;101862.47;10502428;28;20037;-79
2021/09/28 16:08:54;;;;;;;8.05;1.98;;;;;;;19.66;44.95;101712.31;10503325;28;20099;-78
2021/09/28 16:13:54;;;;;;;15.07;2.40;;;;;;;19.80;45.44;101785.19;10486144;28;20067;-79
2021/09/28 16:18:54;;;;;;;7.18;1.63;;;;;;;20.09;44.79;101812.84;10485850;28;20067;-79
2021/09/28 16:23:55;;;;;;;4.75;1.85;;;;;;;19.33;45.37;101710.09;10503323;28;20076;-79
2021/09/28 16:28:55;;;;;;;4.85;1.80;;;;;;;18.67;45.17;101610.38;10469626;28;20035;-79
2021/09/28 16:33:56;;;;;;;1.63;1.27;;;;;;;19.97;45.25;101801.81;10502881;28;20037;-80
2021/09/28 16:38:56;;;;;;;2.08;1.67;;;;;;;19.91;45.50;101811.00;10484295;28;20028;-79
2021/09/28 16:43:56;;;;;;;11.50;2.83;;;;;;;19.80;44.82;101763.22;10501381;28;20048;-79
2021/09/28 16:48:57;;;;;;;8.50;1.77;;;;;;;20.11;44.98;101814.28;10501086;28;20459;-80
2021/09/28 16:53:58;;;;;;;2.70;1.27;;;;;;;19.82;45.15;101779.47;10483373;28;20135;-79
2021/09/28 16:59:00;;;;;;;2.40;1.65;;;;;;;20.01;46.02;101814.03;10500770;28;20068;-79
2021/09/28 17:04:01;;;;;;;6.05;1.58;;;;;;;19.88;45.43;101811.53;10483118;28;20043;-81
2021/09/28 17:09:01;;;;;;;8.13;2.67;;;;;;;19.87;45.78;101807.06;10499662;28;20032;-79
2021/09/28 17:14:01;;;;;;;2.80;1.98;;;;;;;18.82;45.96;101619.03;10500603;28;20435;-79
2021/09/28 17:19:03;;;;;;;2.10;1.70;;;;;;;19.79;45.68;101808.28;10481660;28;20399;-79
2021/09/28 17:24:03;;;;;;;6.07;2.03;;;;;;;19.54;46.79;101805.69;10499721;28;20129;-79
2021/09/28 17:29:04;;;;;;;7.00;2.50;;;;;;;19.52;46.36;101775.69;10500522;28;20101;-79
2021/09/28 17:34:04;;;;;;;4.82;2.80;;;;;;;19.25;47.25;101810.97;10499402;28;20059;-79
2021/09/28 17:39:05;;;;;;;3.85;1.83;;;;;;;18.32;47.73;101685.97;10481903;28;20040;-80
2021/09/28 17:44:05;;;;;;;5.63;2.05;;;;;;;19.15;48.04;101791.47;10481326;28;20044;-79
2021/09/28 17:49:06;;;;;;;10.05;1.25;;;;;;;18.88;48.04;101796.47;10498726;28;20055;-79
2021/09/28 17:54:06;;;;;;;7.00;1.95;;;;;;;17.70;48.77;101611.16;10481218;28;20108;-79
2021/09/28 17:59:08;;;;;;;3.90;2.15;;;;;;;18.54;49.55;101796.03;10481321;28;20047;-79
2021/09/28 18:04:09;;;;;;;3.67;2.15;;;;;;;18.50;49.23;101789.31;10498530;28;20028;-79
2021/09/28 18:09:09;;;;;;;10.10;2.15;;;;;;;18.03;49.83;101712.22;10480284;28;20071;-79
2021/09/28 18:14:10;;;;;;;2.88;2.17;;;;;;;18.46;50.07;101787.25;10498459;28;20040;-78
2021/09/28 18:19:10;;;;;;;3.78;2.03;;;;;;;18.30;50.18;101775.00;10497668;28;20135;-79
2021/09/28 18:24:11;;;;;;;5.90;2.22;;;;;;;17.94;50.70;101743.72;10498319;28;20040;-79
2021/09/28 18:29:14;;;;;;;1.27;1.20;;;;;;;17.87;50.70;101743.81;10463647;28;20091;-78
2021/09/28 18:34:15;;;;;;;2.33;1.42;;;;;;;17.99;50.97;101743.88;10499078;28;20318;-79
2021/09/28 18:39:18;;;;;;;5.43;2.00;;;;;;;17.88;51.49;101761.06;10498793;28;20033;-79
2021/09/28 18:44:19;;;;;;;3.58;2.28;;;;;;;17.62;51.72;101723.78;10495992;28;20052;-79
2021/09/28 18:49:22;;;;;;;1.45;1.35;;;;;;;17.84;52.28;101765.34;10497036;28;20044;-79
2021/09/28 18:54:22;;;;;;;4.07;2.55;;;;;;;17.69;51.98;101719.06;10455667;28;20064;-80
2021/09/28 18:59:31;;;;;;;8.68;1.98;;;;;;;18.19;51.81;101812.22;10487110;28;20119;-77
2021/09/28 19:09:32;;;;;;;2.15;1.95;;;;;;;17.01;52.65;101599.41;10480050;28;20396;-76
2021/09/28 19:14:34;;;;;;;3.78;1.55;;;;;;;17.93;53.06;101771.34;10497272;28;20104;-77
2021/09/28 19:19:37;;;;;;;9.60;2.38;;;;;;;17.66;53.58;101771.56;10498681;28;20032;-77
2021/09/28 19:24:38;;;;;;;1.85;1.60;;;;;;;17.62;54.13;101805.94;10502550;28;20665;-78
2021/09/28 19:29:39;;;;;;;5.10;1.85;;;;;;;17.71;53.40;101784.56;10486680;28;20142;-80
2021/09/28 19:34:39;;;;;;;20.73;2.03;;;;;;;17.41;53.27;101734.03;10502844;28;20032;-80
2021/09/28 19:39:41;;;;;;;7.47;2.35;;;;;;;16.14;53.72;101521.75;10502946;28;20033;-79
2021/09/28 19:44:43;;;;;;;3.67;1.38;;;;;;;17.51;53.80;101751.88;10505056;28;20033;-80
2021/09/28 19:49:49;;;;;;;6.38;2.38;;;;;;;16.73;54.24;101624.44;10486417;28;20036;-80
2021/09/28 19:55:07;;;;;;;2.90;1.48;;;;;;;17.09;54.34;101702.28;10485331;28;20560;-79
2021/09/28 20:37:13;;;;;;;3.78;2.25;;;;;;;16.60;57.76;101660.06;10502565;28;20036;-79
2021/09/28 20:42:15;;;;;;;12.75;3.42;;;;;;;16.95;57.20;101683.22;10502660;28;20083;-79
2021/09/28 20:47:15;;;;;;;4.13;2.60;;;;;;;17.09;57.16;101680.38;10501196;28;20090;-79
2021/09/28 20:52:15;;;;;;;7.00;2.60;;;;;;;16.99;57.67;101671.84;10501006;28;20068;-79
2021/09/28 20:57:16;;;;;;;6.25;2.58;;;;;;;16.76;57.74;101651.38;10501646;28;20119;-80
2021/09/28 21:02:16;;;;;;;8.57;3.25;;;;;;;16.91;58.42;101659.25;10483019;28;20043;-80
2021/09/28 21:07:17;;;;;;;5.00;3.03;;;;;;;16.89;58.69;101659.47;10501302;28;20392;-79
2021/09/28 21:12:17;;;;;;;7.28;3.08;;;;;;;16.78;59.39;101657.44;10503579;28;20461;-79
2021/09/28 21:17:17;;;;;;;5.47;3.05;;;;;;;16.01;58.16;101490.72;10486354;28;20063;-79
2021/09/28 21:22:18;;;;;;;4.35;3.15;;;;;;;16.58;59.65;101629.34;10500386;28;20448;-79
2021/09/28 21:27:18;;;;;;;5.97;2.88;;;;;;;16.66;59.84;101649.09;10500470;28;20037;-79
2021/09/28 21:32:27;;;;;;;7.43;2.47;;;;;;;14.64;59.76;101328.19;10481801;28;20032;-79
2021/09/28 21:37:28;;;;;;;3.00;2.70;;;;;;;16.51;60.28;101656.75;10483122;28;20035;-79
2021/09/28 21:42:28;;;;;;;4.15;3.20;;;;;;;16.26;60.35;101593.78;10483486;28;20041;-79
2021/09/28 21:47:29;;;;;;;3.42;2.88;;;;;;;16.60;59.76;101638.19;10499407;28;20041;-79
2021/09/28 21:52:29;;;;;;;7.45;3.65;;;;;;;15.99;60.91;101577.53;10464499;28;20043;-79
2021/09/28 21:57:30;;;;;;;7.55;3.08;;;;;;;16.35;61.35;101640.84;10502546;28;20033;-79
2021/09/28 22:02:30;;;;;;;2.92;2.55;;;;;;;16.48;61.02;101632.56;10500204;28;20062;-79
2021/09/28 22:07:30;;;;;;;5.70;3.25;;;;;;;15.49;60.60;101443.47;10481437;28;20090;-79
2021/09/28 22:12:31;;;;;;;5.93;2.55;;;;;;;16.43;60.69;101602.31;10498416;28;20048;-80
2021/09/28 22:17:31;;;;;;;5.28;2.90;;;;;;;16.25;62.02;101611.25;10481300;28;20037;-79
2021/09/28 22:22:32;;;;;;;2.63;2.42;;;;;;;15.79;61.88;101501.16;10479998;28;20041;-80
2021/09/28 22:27:32;;;;;;;9.15;2.88;;;;;;;16.21;61.82;101579.97;10498081;28;20072;-80
2021/09/28 22:32:33;;;;;;;6.57;3.03;;;;;;;15.74;62.54;101500.94;10463786;28;20133;-80
2021/09/28 22:37:33;;;;;;;4.90;2.97;;;;;;;15.97;63.33;101590.56;10480074;28;20055;-79
2021/09/28 22:42:33;;;;;;;5.40;2.40;;;;;;;15.18;63.74;101437.94;10480396;28;20052;-79
2021/09/28 22:47:34;;;;;;;5.13;3.10;;;;;;;15.97;63.69;101579.63;10498317;28;20044;-80
2021/09/28 22:52:34;;;;;;;6.90;2.95;;;;;;;16.00;63.46;101560.06;10497442;28;20388;-80
2021/09/28 22:57:36;;;;;;;3.47;3.22;;;;;;;16.16;63.36;101556.00;10488560;28;20123;-78
2021/09/28 23:02:36;;;;;;;3.47;2.67;;;;;;;15.96;63.08;101526.06;10488526;28;20032;-80
2021/09/28 23:07:37;;;;;;;4.05;1.80;;;;;;;16.16;62.85;101546.97;10506053;28;20033;-79
2021/09/28 23:12:37;;;;;;;4.50;3.22;;;;;;;16.16;62.85;101556.00;10454288;28;20528;-79
2021/09/28 23:17:38;;;;;;;6.20;3.38;;;;;;;15.07;62.27;101357.63;10488048;28;20036;-79
2021/09/28 23:22:38;;;;;;;9.68;2.50;;;;;;;16.20;62.41;101545.47;10504241;28;20400;-79
2021/09/28 23:27:39;;;;;;;3.13;2.85;;;;;;;15.56;63.52;101492.59;10486872;28;20033;-79
2021/09/28 23:32:39;;;;;;;3.90;3.20;;;;;;;15.63;62.66;101495.28;10504617;28;20037;-79
2021/09/28 23:37:39;;;;;;;6.43;3.03;;;;;;;15.89;62.69;101528.00;10504500;28;20072;-79
2021/09/28 23:42:40;;;;;;;4.38;2.65;;;;;;;14.53;62.86;101313.31;10486156;28;20076;-79
2021/09/28 23:47:40;;;;;;;6.97;3.38;;;;;;;15.83;63.11;101523.41;10504396;28;20040;-79